Time;durP1;ratioP1;P1;durP2;ratioP2;P2;SDS_P1;SDS_P2;PMS_P1;PMS_P2;Temp;Humidity;BMP_temperature;BMP_pressure;BME280_temperature;BME280_humidity;BME280_pressure;Samples;Min_cycle;Max_cycle;Signal;HPM_P1;HPM_P2
2022/12/22 03:25:54;;;;;;;4.70;0.90;;;;;;;8.05;100.00;96540.84;5026911;28;20480;-66
2022/12/22 03:28:26;;;;;;;1.95;0.88;;;;;;;8.03;100.00;96533.00;5032240;28;20043;-66
2022/12/22 03:30:56;;;;;;;1.92;0.70;;;;;;;8.03;100.00;96534.88;5027665;28;20499;-66
2022/12/22 03:33:23;;;;;;;1.92;0.90;;;;;;;8.02;100.00;96538.63;5032710;28;20067;-66
2022/12/22 03:35:50;;;;;;;2.25;0.90;;;;;;;7.99;100.00;96537.28;5044508;28;20118;-66
2022/12/22 03:38:17;;;;;;;1.73;0.90;;;;;;;8.01;100.00;96528.94;5041052;28;20048;-66
2022/12/22 03:40:44;;;;;;;1.73;0.93;;;;;;;8.02;100.00;96535.94;5024301;28;20095;-66
2022/12/22 03:46:29;;;;;;;2.47;1.08;;;;;;;8.07;100.00;96539.50;5046693;28;20048;-66
2022/12/22 03:49:09;;;;;;;2.25;0.85;;;;;;;8.07;100.00;96534.13;5043829;28;20094;-66
2022/12/22 03:51:37;;;;;;;3.05;1.10;;;;;;;8.06;100.00;96531.66;5045532;28;20060;-66
2022/12/22 03:54:04;;;;;;;1.65;0.88;;;;;;;8.08;100.00;96532.25;5038147;28;20057;-66
2022/12/22 03:56:30;;;;;;;1.67;0.70;;;;;;;8.12;100.00;96533.34;5066524;28;20064;-66
2022/12/22 03:58:57;;;;;;;1.92;0.80;;;;;;;8.13;100.00;96532.28;5050279;28;20100;-66
2022/12/22 04:01:24;;;;;;;2.55;1.20;;;;;;;8.24;100.00;96526.97;5037881;28;20048;-65
2022/12/22 04:03:50;;;;;;;1.25;0.80;;;;;;;8.22;100.00;96523.72;5046746;28;20036;-66
2022/12/22 04:06:18;;;;;;;2.40;0.88;;;;;;;8.26;100.00;96531.03;5047529;28;20052;-65
2022/12/22 04:08:44;;;;;;;2.60;0.88;;;;;;;8.33;100.00;96520.84;5040075;28;20524;-66
2022/12/22 04:13:58;;;;;;;1.85;0.63;;;;;;;8.50;100.00;96522.56;5045872;28;20052;-66
2022/12/22 04:16:24;;;;;;;1.83;0.68;;;;;;;8.53;100.00;96524.78;5046501;28;20064;-66
2022/12/22 04:18:51;;;;;;;3.85;0.77;;;;;;;8.56;100.00;96509.97;5033424;28;20041;-66
2022/12/22 04:21:17;;;;;;;3.33;0.60;;;;;;;8.51;100.00;96505.31;5044772;28;20443;-66
2022/12/22 04:23:44;;;;;;;0.95;0.68;;;;;;;8.56;100.00;96507.25;5045611;28;20236;-66
2022/12/22 04:26:10;;;;;;;2.67;0.82;;;;;;;8.56;100.00;96502.66;5040605;28;20501;-66
2022/12/22 04:28:37;;;;;;;3.72;0.90;;;;;;;8.53;100.00;96497.00;5026356;28;20271;-66
2022/12/22 04:31:04;;;;;;;2.88;1.05;;;;;;;8.56;100.00;96486.47;5030974;28;20033;-66
2022/12/22 04:33:30;;;;;;;0.68;0.40;;;;;;;8.54;100.00;96491.34;5045798;28;20056;-64
2022/12/22 04:35:57;;;;;;;2.72;0.80;;;;;;;8.52;100.00;96495.34;5043663;28;20068;-64
2022/12/22 04:38:23;;;;;;;1.92;0.80;;;;;;;8.49;100.00;96480.47;5025178;28;20495;-64
2022/12/22 04:40:50;;;;;;;3.75;0.90;;;;;;;8.50;100.00;96481.28;5035704;28;20106;-64
2022/12/22 04:43:16;;;;;;;3.42;1.13;;;;;;;8.50;100.00;96486.69;5025252;28;20053;-64
2022/12/22 04:45:43;;;;;;;1.92;0.75;;;;;;;8.48;100.00;96484.25;5034773;28;20041;-64
2022/12/22 04:48:10;;;;;;;3.33;0.75;;;;;;;8.48;100.00;96491.53;5045848;28;20048;-64
2022/12/22 04:50:36;;;;;;;2.60;0.70;;;;;;;8.43;100.00;96492.31;5035429;28;20045;-64
2022/12/22 04:53:03;;;;;;;6.05;1.05;;;;;;;8.51;100.00;96491.03;5025047;28;20115;-64
2022/12/22 04:55:29;;;;;;;3.67;1.08;;;;;;;8.48;100.00;96495.06;5039493;28;20079;-64
2022/12/22 04:57:56;;;;;;;3.05;1.08;;;;;;;8.52;100.00;96496.13;5033124;28;20451;-65
2022/12/22 05:00:23;;;;;;;2.40;0.90;;;;;;;8.53;100.00;96489.72;5025235;28;20142;-64
2022/12/22 05:02:51;;;;;;;3.35;0.90;;;;;;;8.49;100.00;96485.06;5033317;28;20068;-64
2022/12/22 05:05:18;;;;;;;3.85;0.70;;;;;;;8.48;100.00;96486.97;5045891;28;20546;-64
2022/12/22 05:07:45;;;;;;;5.30;1.20;;;;;;;8.44;100.00;96478.56;5043394;28;20041;-64
2022/12/22 05:10:11;;;;;;;1.33;0.55;;;;;;;8.46;100.00;96475.59;5032365;28;20513;-64
2022/12/22 05:12:53;;;;;;;4.85;1.50;;;;;;;8.52;100.00;96479.16;5031123;28;20075;-64
2022/12/22 05:15:29;;;;;;;2.47;0.80;;;;;;;8.46;100.00;96479.13;5044572;28;20527;-64
2022/12/22 05:17:57;;;;;;;2.92;1.38;;;;;;;8.46;100.00;96475.59;5043854;28;20095;-64
2022/12/22 05:20:24;;;;;;;4.40;1.38;;;;;;;8.48;100.00;96470.78;5046258;28;20041;-64
2022/12/22 05:22:51;;;;;;;4.10;1.15;;;;;;;8.48;100.00;96468.06;5036015;28;20125;-64
2022/12/22 05:25:21;;;;;;;2.58;1.08;;;;;;;8.45;100.00;96479.38;5025606;28;20442;-64
2022/12/22 05:27:49;;;;;;;5.43;1.25;;;;;;;8.50;100.00;96470.50;5044244;28;20033;-64
2022/12/22 05:30:18;;;;;;;2.47;1.02;;;;;;;8.48;100.00;96475.34;5028833;28;20095;-64
2022/12/22 05:32:44;;;;;;;3.38;1.13;;;;;;;8.36;100.00;96470.94;5029601;28;20389;-64
2022/12/22 05:35:11;;;;;;;4.65;1.30;;;;;;;8.37;100.00;96469.88;5032858;28;20041;-64
2022/12/22 05:37:38;;;;;;;3.72;1.05;;;;;;;8.38;100.00;96470.69;5032968;28;20068;-64
2022/12/22 05:40:05;;;;;;;1.95;0.90;;;;;;;8.26;100.00;96463.59;5045052;28;20124;-64
2022/12/22 05:42:34;;;;;;;2.65;0.80;;;;;;;8.33;100.00;96463.38;5042396;28;20041;-64
2022/12/22 05:45:32;;;;;;;2.88;0.93;;;;;;;8.26;100.00;96460.09;5044313;28;20045;-64
2022/12/22 05:47:58;;;;;;;4.97;0.80;;;;;;;8.16;100.00;96461.66;5037005;28;20243;-64
2022/12/22 05:50:25;;;;;;;2.50;0.88;;;;;;;8.13;100.00;96458.66;5034323;28;20287;-64
2022/12/22 05:53:03;;;;;;;1.40;0.50;;;;;;;8.14;100.00;96461.09;5046348;28;20492;-64
2022/12/22 05:55:30;;;;;;;1.95;0.60;;;;;;;8.10;100.00;96462.69;5044582;28;20032;-64
2022/12/22 05:57:57;;;;;;;1.40;0.60;;;;;;;8.24;100.00;96463.06;5040510;28;20105;-64
2022/12/22 06:00:24;;;;;;;2.17;0.63;;;;;;;8.23;100.00;96445.25;5032478;28;20049;-64
2022/12/22 06:02:50;;;;;;;6.25;0.70;;;;;;;8.29;100.00;96449.59;5047104;28;20052;-64
2022/12/22 06:05:17;;;;;;;1.85;0.63;;;;;;;8.32;100.00;96446.38;5053657;28;20075;-64
2022/12/22 06:07:44;;;;;;;2.42;0.50;;;;;;;8.35;100.00;96453.16;5035246;28;20061;-64
2022/12/22 06:10:11;;;;;;;3.60;0.50;;;;;;;8.42;100.00;96458.31;5030951;28;20166;-64
2022/12/22 06:12:40;;;;;;;1.73;0.40;;;;;;;8.45;100.00;96455.88;5035322;28;20049;-64
2022/12/22 06:15:09;;;;;;;2.75;0.50;;;;;;;8.53;100.00;96449.25;5041450;28;20072;-64
2022/12/22 06:17:35;;;;;;;3.72;0.65;;;;;;;8.54;100.00;96447.34;5035779;28;20492;-64
2022/12/22 06:20:10;;;;;;;3.30;0.73;;;;;;;8.59;100.00;96442.00;5044060;28;20057;-64
2022/12/22 06:22:37;;;;;;;4.10;0.60;;;;;;;8.53;100.00;96441.16;5030387;28;20049;-63
2022/12/22 06:25:04;;;;;;;4.32;0.70;;;;;;;8.51;100.00;96445.94;5044200;28;20540;-64
2022/12/22 06:27:30;;;;;;;3.08;0.68;;;;;;;8.54;100.00;96440.06;5041750;28;20279;-64
2022/12/22 06:29:57;;;;;;;2.30;0.45;;;;;;;8.64;100.00;96451.97;5029716;28;20091;-64
2022/12/22 06:32:23;;;;;;;4.03;1.08;;;;;;;8.67;100.00;96452.25;5042582;28;20049;-64
2022/12/22 06:34:50;;;;;;;6.03;1.00;;;;;;;8.82;100.00;96453.44;5037840;28;20042;-64
2022/12/22 06:37:17;;;;;;;4.13;1.02;;;;;;;8.87;99.96;96461.53;5042362;28;20045;-65
2022/12/22 06:39:43;;;;;;;3.08;1.00;;;;;;;8.88;99.73;96460.47;5036408;28;20225;-66
2022/12/22 06:44:55;;;;;;;6.57;1.55;;;;;;;8.89;99.34;96462.09;5041132;28;20041;-65
2022/12/22 06:47:22;;;;;;;5.72;0.90;;;;;;;9.03;98.14;96467.00;5041249;28;20045;-65
2022/12/22 06:49:49;;;;;;;9.85;1.95;;;;;;;8.95;98.89;96466.44;5044050;28;20067;-65
2022/12/22 06:52:15;;;;;;;4.22;1.10;;;;;;;9.03;97.82;96465.09;5040754;28;20130;-65
2022/12/22 06:54:42;;;;;;;4.32;1.00;;;;;;;9.06;97.78;96471.88;5043879;28;20041;-64
2022/12/22 06:57:08;;;;;;;5.07;1.02;;;;;;;9.00;97.93;96468.34;5045414;28;20037;-65
2022/12/22 06:59:35;;;;;;;5.72;2.08;;;;;;;9.03;97.75;96475.91;5038305;28;20068;-64
2022/12/22 07:02:02;;;;;;;7.28;1.20;;;;;;;9.08;97.84;96494.84;5043053;28;20041;-64
2022/12/22 07:04:30;;;;;;;6.13;1.30;;;;;;;9.03;99.01;96494.00;5047537;28;20041;-64
2022/12/22 07:06:56;;;;;;;3.97;1.08;;;;;;;8.92;100.00;96499.34;5045492;28;20084;-66
2022/12/22 07:09:23;;;;;;;3.20;0.95;;;;;;;8.77;100.00;96499.28;5034123;28;20072;-66
2022/12/22 07:11:50;;;;;;;5.43;1.25;;;;;;;8.69;100.00;96485.22;5051838;28;20135;-65
2022/12/22 07:14:16;;;;;;;6.60;1.48;;;;;;;8.61;100.00;96484.88;5032975;28;20049;-65
2022/12/22 07:16:43;;;;;;;9.27;1.55;;;;;;;8.46;100.00;96481.81;5036848;28;20522;-65
2022/12/22 07:19:09;;;;;;;6.03;1.30;;;;;;;8.41;100.00;96494.47;5033335;28;20041;-65
2022/12/22 07:21:36;;;;;;;9.15;1.38;;;;;;;8.38;100.00;96497.66;5042576;28;20059;-64
2022/12/22 07:24:03;;;;;;;3.72;0.88;;;;;;;8.44;100.00;96500.13;5043326;28;20076;-64
2022/12/22 07:26:29;;;;;;;6.18;1.40;;;;;;;8.42;100.00;96507.69;5045417;28;20056;-64
2022/12/22 07:28:56;;;;;;;3.40;1.15;;;;;;;8.26;100.00;96506.75;5032105;28;20132;-65
2022/12/22 07:31:22;;;;;;;9.40;1.90;;;;;;;8.24;100.00;96516.16;5042930;28;20076;-63
2022/12/22 07:33:49;;;;;;;8.90;1.85;;;;;;;8.27;100.00;96521.06;5044249;28;20045;-65
2022/12/22 07:36:18;;;;;;;7.63;1.88;;;;;;;8.27;100.00;96516.50;5044214;28;20131;-65
2022/12/22 07:38:47;;;;;;;8.65;1.48;;;;;;;8.36;100.00;96511.41;5033874;28;20053;-65
2022/12/22 07:44:01;;;;;;;9.63;2.17;;;;;;;8.37;100.00;96513.03;5033925;28;20056;-65
2022/12/22 07:46:31;;;;;;;7.72;2.00;;;;;;;8.44;100.00;96496.66;5042213;28;20056;-65
2022/12/22 07:51:43;;;;;;;5.22;1.50;;;;;;;8.54;96.98;96495.91;5040701;28;20045;-65
2022/12/22 07:54:12;;;;;;;6.65;1.40;;;;;;;8.58;95.46;96489.75;5044409;28;20045;-63
2022/12/22 07:56:39;;;;;;;8.00;1.38;;;;;;;8.62;93.98;96506.22;5043270;28;20056;-65
2022/12/22 07:59:06;;;;;;;4.07;1.20;;;;;;;8.65;93.79;96496.78;5034859;28;20048;-52
2022/12/22 08:01:33;;;;;;;7.72;0.80;;;;;;;8.69;94.37;96490.59;5047619;28;20045;-58
2022/12/22 08:04:00;;;;;;;6.80;1.90;;;;;;;8.64;95.38;96492.47;5032944;28;20440;-59
2022/12/22 08:06:27;;;;;;;2.38;0.80;;;;;;;8.62;96.36;96497.31;5041002;28;20526;-64
2022/12/22 08:08:54;;;;;;;5.78;1.10;;;;;;;8.56;96.83;96497.25;5034622;28;20080;-64
2022/12/22 08:11:20;;;;;;;6.07;1.23;;;;;;;8.58;96.89;96492.44;5032313;28;20041;-63
2022/12/22 08:13:48;;;;;;;6.63;1.30;;;;;;;8.65;97.11;96497.59;5025154;28;20463;-62
2022/12/22 08:16:15;;;;;;;5.15;0.80;;;;;;;8.80;96.22;96502.28;5029509;28;20564;-63
2022/12/22 08:18:43;;;;;;;5.43;1.25;;;;;;;8.81;96.23;96505.78;5032040;28;20060;-62
2022/12/22 08:21:09;;;;;;;9.40;1.27;;;;;;;8.85;95.61;96499.59;5021405;28;20480;-62
2022/12/22 08:23:36;;;;;;;3.83;1.15;;;;;;;8.80;96.29;96494.16;5030995;28;20420;-63
2022/12/22 08:26:11;;;;;;;7.05;1.55;;;;;;;8.79;96.85;96489.84;5042696;28;20045;-62
2022/12/22 08:28:43;;;;;;;8.43;1.42;;;;;;;8.70;98.16;96492.22;5036276;28;20061;-62
2022/12/22 08:31:09;;;;;;;5.22;1.00;;;;;;;8.75;98.36;96496.84;5032045;28;20863;-63
2022/12/22 08:33:36;;;;;;;4.68;0.70;;;;;;;8.78;97.26;96492.81;5032423;28;20049;-63
2022/12/22 08:36:04;;;;;;;2.83;0.80;;;;;;;8.74;97.47;96497.09;5033022;28;20512;-63
2022/12/22 08:38:37;;;;;;;6.68;1.10;;;;;;;8.84;95.74;96486.34;5040497;28;20282;-62
2022/12/22 08:41:06;;;;;;;5.80;1.17;;;;;;;8.94;96.29;96499.91;5033819;28;20078;-62
2022/12/22 08:43:32;;;;;;;4.07;0.95;;;;;;;9.05;94.91;96499.94;5037592;28;20436;-63
2022/12/22 08:45:59;;;;;;;8.10;1.08;;;;;;;9.16;93.99;96488.13;5049337;28;20043;-62
2022/12/22 08:48:25;;;;;;;5.80;1.02;;;;;;;9.29;93.74;96481.41;5034070;28;20512;-63
2022/12/22 08:50:52;;;;;;;3.60;1.02;;;;;;;9.32;92.38;96485.47;5037205;28;20048;-62
2022/12/22 08:53:18;;;;;;;6.63;1.17;;;;;;;9.34;92.07;96486.00;5043116;28;20434;-62
2022/12/22 08:56:05;;;;;;;5.95;1.30;;;;;;;9.49;90.88;96480.66;5046833;28;20578;-64
2022/12/22 08:58:32;;;;;;;7.07;1.15;;;;;;;9.55;91.48;96494.19;5043123;28;20188;-63
2022/12/22 09:00:58;;;;;;;5.05;1.20;;;;;;;9.75;90.45;96498.81;5019749;28;20507;-64
2022/12/22 09:03:25;;;;;;;5.78;1.27;;;;;;;9.70;91.15;96505.00;5043800;28;20045;-63
2022/12/22 09:05:59;;;;;;;4.95;1.05;;;;;;;9.70;90.29;96510.41;5042172;28;20063;-64
2022/12/22 09:08:26;;;;;;;6.45;1.25;;;;;;;9.53;92.75;96532.28;5032457;28;20539;-65
2022/12/22 09:10:52;;;;;;;7.68;2.13;;;;;;;9.37;94.08;96526.03;5034365;28;20053;-62
2022/12/22 09:13:19;;;;;;;3.08;0.60;;;;;;;9.12;95.38;96530.22;5036370;28;20041;-62
2022/12/22 09:15:45;;;;;;;3.28;0.70;;;;;;;9.04;97.20;96539.66;5049391;28;20119;-62
2022/12/22 09:18:12;;;;;;;7.57;1.42;;;;;;;9.04;97.42;96536.13;5040725;28;20063;-62
2022/12/22 09:20:38;;;;;;;4.85;0.73;;;;;;;8.84;99.32;96541.16;5038574;28;20072;-62
2022/12/22 09:23:05;;;;;;;8.13;1.20;;;;;;;8.72;100.00;96540.56;5042832;28;20037;-64
2022/12/22 09:25:33;;;;;;;6.38;1.42;;;;;;;8.57;100.00;96533.16;5031032;28;20057;-60
2022/12/22 09:28:00;;;;;;;6.60;1.17;;;;;;;8.49;100.00;96539.84;5041734;28;20107;-58
2022/12/22 09:30:26;;;;;;;6.18;1.23;;;;;;;8.53;100.00;96532.06;5031289;28;20045;-56
2022/12/22 09:32:54;;;;;;;12.70;1.45;;;;;;;8.54;100.00;96549.88;5043688;28;20103;-59
2022/12/22 09:35:20;;;;;;;6.03;1.02;;;;;;;8.47;100.00;96541.97;5047138;28;20056;-57
2022/12/22 09:37:48;;;;;;;2.95;0.80;;;;;;;8.43;100.00;96532.75;5043313;28;20527;-57
2022/12/22 09:40:14;;;;;;;2.47;0.70;;;;;;;8.33;100.00;96541.59;5042534;28;20061;-57
2022/12/22 09:42:41;;;;;;;5.82;1.05;;;;;;;8.32;100.00;96542.66;5041686;28;20135;-57
2022/12/22 09:45:18;;;;;;;7.47;2.13;;;;;;;8.24;100.00;96543.13;5047147;28;20090;-56
2022/12/22 09:47:52;;;;;;;9.10;1.60;;;;;;;8.17;100.00;96548.75;5032701;28;20464;-59
2022/12/22 09:50:22;;;;;;;6.55;1.75;;;;;;;8.13;100.00;96553.84;5051533;28;20059;-57
2022/12/22 09:52:56;;;;;;;3.70;0.85;;;;;;;8.19;100.00;96560.91;5047507;28;20509;-57
2022/12/22 09:55:22;;;;;;;6.00;1.23;;;;;;;8.17;100.00;96562.22;5047666;28;20056;-60
2022/12/22 09:57:50;;;;;;;8.95;2.15;;;;;;;8.13;100.00;96564.63;5034761;28;20774;-61
2022/12/22 10:00:19;;;;;;;7.00;1.40;;;;;;;8.15;100.00;96562.47;5038806;28;20328;-63
2022/12/22 10:03:01;;;;;;;3.67;1.45;;;;;;;8.14;100.00;96573.56;5044941;28;20045;-62
2022/12/22 10:05:31;;;;;;;5.18;1.00;;;;;;;8.26;100.00;96573.38;5045575;28;20115;-56
2022/12/22 10:08:01;;;;;;;4.40;1.05;;;;;;;8.33;100.00;96577.47;5047578;28;20041;-59
2022/12/22 10:10:31;;;;;;;8.07;2.13;;;;;;;8.29;100.00;96578.25;5048795;28;20570;-58
2022/12/22 10:13:00;;;;;;;3.28;0.70;;;;;;;8.26;100.00;96590.34;5039418;28;20150;-58
2022/12/22 10:15:39;;;;;;;5.60;1.67;;;;;;;8.27;100.00;96583.09;5044752;28;20052;-63
2022/12/22 10:18:12;;;;;;;3.08;0.90;;;;;;;8.33;100.00;96592.84;5046815;28;20064;-62
2022/12/22 10:20:40;;;;;;;5.18;1.10;;;;;;;8.50;100.00;96592.72;5039540;28;20095;-63
2022/12/22 10:23:19;;;;;;;2.22;0.70;;;;;;;8.58;100.00;96594.97;5044422;28;20571;-58
2022/12/22 10:25:54;;;;;;;4.63;0.98;;;;;;;8.54;100.00;96607.34;5046872;28;20056;-57
2022/12/22 10:28:52;;;;;;;3.97;0.80;;;;;;;8.56;100.00;96596.31;5035683;28;20043;-58
2022/12/22 10:31:22;;;;;;;4.20;0.70;;;;;;;8.42;100.00;96595.88;5043026;28;20040;-62
2022/12/22 10:33:52;;;;;;;3.25;1.27;;;;;;;8.48;100.00;96594.88;5044742;28;20124;-61
2022/12/22 10:36:31;;;;;;;2.47;0.73;;;;;;;8.54;100.00;96587.66;5056212;28;20040;-56
2022/12/22 10:39:02;;;;;;;2.05;0.75;;;;;;;8.61;100.00;96590.94;5043176;28;20527;-57
2022/12/22 10:41:41;;;;;;;1.98;0.50;;;;;;;8.78;100.00;96585.41;5042662;28;20041;-59
2022/12/22 10:44:18;;;;;;;4.80;1.17;;;;;;;8.63;100.00;96585.28;5036994;28;20506;-59
2022/12/22 10:46:48;;;;;;;1.95;0.82;;;;;;;8.64;100.00;96590.44;5044209;28;20102;-60
2022/12/22 10:49:43;;;;;;;5.57;1.98;;;;;;;8.72;100.00;96581.03;5035169;28;20037;-59
2022/12/22 10:52:15;;;;;;;2.67;0.55;;;;;;;8.82;100.00;96580.28;5038237;28;20056;-62
2022/12/22 10:54:44;;;;;;;2.83;0.75;;;;;;;8.87;100.00;96577.63;5038792;28;20154;-62
2022/12/22 10:57:13;;;;;;;1.10;0.50;;;;;;;8.91;100.00;96586.00;5030565;28;20061;-62
2022/12/22 10:59:51;;;;;;;1.90;0.60;;;;;;;9.02;100.00;96603.91;5043589;28;20061;-59
2022/12/22 11:02:24;;;;;;;2.03;0.55;;;;;;;9.04;100.00;96584.75;5042323;28;20059;-59
2022/12/22 11:04:52;;;;;;;2.05;0.43;;;;;;;9.06;100.00;96590.69;5040572;28;20569;-60
2022/12/22 11:07:19;;;;;;;0.75;0.28;;;;;;;9.10;100.00;96586.38;5038189;28;20045;-60
2022/12/22 11:09:46;;;;;;;1.27;0.40;;;;;;;9.05;100.00;96581.78;5033207;28;20043;-60
2022/12/22 11:12:48;;;;;;;1.33;0.35;;;;;;;9.01;100.00;96593.34;5029237;28;20046;-59
2022/12/22 11:15:31;;;;;;;0.88;0.43;;;;;;;9.01;100.00;96577.97;5028365;28;20531;-60
2022/12/22 11:18:29;;;;;;;2.88;1.08;;;;;;;9.05;100.00;96568.28;5032456;28;20049;-59
2022/12/22 11:21:14;;;;;;;2.58;0.80;;;;;;;9.08;100.00;96565.06;5041883;28;20492;-60
2022/12/22 11:24:17;;;;;;;2.33;0.82;;;;;;;9.12;100.00;96565.34;5036527;28;20037;-60
2022/12/22 11:27:05;;;;;;;3.05;0.57;;;;;;;9.23;100.00;96574.31;5043291;28;20564;-58
2022/12/22 11:30:03;;;;;;;3.70;0.65;;;;;;;9.18;100.00;96569.69;5036192;28;20128;-59
2022/12/22 11:32:52;;;;;;;7.68;2.65;;;;;;;9.34;100.00;96588.69;5036219;28;20052;-60
2022/12/22 11:35:37;;;;;;;2.42;0.65;;;;;;;9.54;99.96;96595.25;5050776;28;20118;-58
2022/12/22 11:38:23;;;;;;;3.85;0.85;;;;;;;9.52;99.56;96582.00;5041920;28;20037;-60
2022/12/22 11:41:03;;;;;;;1.85;0.30;;;;;;;9.63;98.69;96572.03;5031961;28;20052;-58
2022/12/22 11:43:57;;;;;;;1.80;0.43;;;;;;;9.62;97.31;96575.81;5037297;28;20037;-59
2022/12/22 11:46:36;;;;;;;3.08;1.38;;;;;;;9.60;99.53;96577.97;5044059;28;20045;-58
2022/12/22 11:49:25;;;;;;;1.60;0.30;;;;;;;9.69;97.75;96573.66;5041407;28;20045;-59
2022/12/22 11:52:06;;;;;;;3.22;1.83;;;;;;;9.75;98.61;96590.72;5040177;28;20563;-61
2022/12/22 11:54:44;;;;;;;2.53;0.80;;;;;;;9.94;96.50;96580.22;5046138;28;20124;-62
2022/12/22 11:57:38;;;;;;;3.22;1.55;;;;;;;10.00;97.17;96592.66;5048359;28;20052;-59
2022/12/22 12:00:10;;;;;;;2.63;0.40;;;;;;;10.06;95.90;96590.00;5029912;28;20077;-58
2022/12/22 12:02:39;;;;;;;3.25;0.57;;;;;;;10.10;95.83;96588.38;5030350;28;20049;-58
2022/12/22 12:05:37;;;;;;;1.77;0.32;;;;;;;10.13;94.36;96591.34;5043498;28;20079;-58
2022/12/22 12:08:22;;;;;;;1.70;0.60;;;;;;;9.95;95.52;96572.94;5030088;28;20045;-57
2022/12/22 12:10:55;;;;;;;1.20;0.40;;;;;;;9.75;96.71;96596.94;5036491;28;20037;-60
2022/12/22 12:13:34;;;;;;;2.95;0.50;;;;;;;9.75;96.21;96596.94;5041173;28;20049;-58
2022/12/22 12:16:12;;;;;;;1.70;0.45;;;;;;;9.69;96.72;96603.41;5038626;28;20049;-56
2022/12/22 12:18:51;;;;;;;3.10;1.10;;;;;;;9.62;97.55;96610.97;5030006;28;20052;-58
2022/12/22 12:21:23;;;;;;;3.80;0.90;;;;;;;9.76;96.99;96612.09;5040301;28;20040;-61
2022/12/22 12:24:28;;;;;;;2.83;0.98;;;;;;;9.74;96.03;96632.34;5029701;28;20052;-62
2022/12/22 12:27:27;;;;;;;4.10;1.25;;;;;;;9.82;95.37;96626.44;5040942;28;20072;-58
2022/12/22 12:30:14;;;;;;;4.10;0.75;;;;;;;9.86;95.76;96624.00;5033771;28;20076;-60
2022/12/22 12:33:10;;;;;;;3.88;0.60;;;;;;;9.95;94.68;96630.50;5029419;28;20045;-57
2022/12/22 12:36:03;;;;;;;2.65;0.73;;;;;;;10.00;92.58;96630.53;5043344;28;20311;-58
2022/12/22 12:38:37;;;;;;;1.83;0.32;;;;;;;9.96;92.53;96632.16;5030524;28;20052;-56
2022/12/22 12:41:54;;;;;;;5.88;1.75;;;;;;;9.76;94.99;96646.41;5038835;28;20385;-57
2022/12/22 12:44:25;;;;;;;2.20;0.32;;;;;;;9.85;94.38;96649.44;5040183;28;20045;-56
2022/12/22 12:46:51;;;;;;;3.47;1.10;;;;;;;9.82;95.19;96634.53;5037512;28;20038;-58
2022/12/22 12:49:33;;;;;;;2.50;0.50;;;;;;;9.75;95.02;96644.78;5032837;28;20041;-58
2022/12/22 12:52:01;;;;;;;1.90;0.30;;;;;;;9.83;94.50;96638.03;5033683;28;20052;-57
2022/12/22 12:54:28;;;;;;;0.90;0.40;;;;;;;9.95;95.24;96644.03;5046891;28;20037;-58
2022/12/22 12:57:00;;;;;;;5.80;1.20;;;;;;;9.88;95.07;96651.59;5043707;28;20555;-61
2022/12/22 12:59:44;;;;;;;2.47;0.82;;;;;;;10.01;94.45;96650.28;5031752;28;20045;-57
2022/12/22 13:02:27;;;;;;;0.95;0.40;;;;;;;10.15;92.81;96647.88;5033235;28;20064;-57
2022/12/22 13:05:26;;;;;;;3.40;0.47;;;;;;;10.13;93.29;96650.03;5041468;28;20551;-61
2022/12/22 13:08:23;;;;;;;5.05;1.80;;;;;;;9.94;94.24;96653.22;5029644;28;20106;-57
2022/12/22 13:10:53;;;;;;;4.22;0.80;;;;;;;9.94;96.14;96647.81;5031807;28;20045;-58
2022/12/22 13:13:22;;;;;;;1.98;0.60;;;;;;;9.87;96.17;96658.06;5031025;28;20041;-59
2022/12/22 13:16:09;;;;;;;3.33;0.60;;;;;;;9.84;96.63;96669.44;5030644;28;20491;-62
2022/12/22 13:18:41;;;;;;;2.05;0.50;;;;;;;9.70;99.06;96661.78;5032970;28;20041;-63
2022/12/22 13:21:25;;;;;;;3.75;0.63;;;;;;;9.62;99.16;96665.03;5030023;28;20045;-58
2022/12/22 13:24:35;;;;;;;2.60;0.60;;;;;;;9.46;100.00;96670.34;5031400;28;20050;-57
2022/12/22 13:27:08;;;;;;;2.50;0.52;;;;;;;9.42;100.00;96676.50;5033232;28;20057;-61
2022/12/22 13:29:45;;;;;;;2.75;0.50;;;;;;;9.34;100.00;96678.66;5033245;28;20099;-59
2022/12/22 13:32:26;;;;;;;3.33;0.60;;;;;;;9.43;100.00;96673.56;5033179;28;20059;-59
2022/12/22 13:35:04;;;;;;;4.30;0.50;;;;;;;9.44;100.00;96672.47;5040013;28;20458;-61
2022/12/22 13:37:52;;;;;;;6.60;1.15;;;;;;;9.52;100.00;96681.16;5030765;28;20136;-61
2022/12/22 13:40:22;;;;;;;2.17;0.73;;;;;;;9.59;99.55;96679.84;5035704;28;20048;-61
2022/12/22 13:42:54;;;;;;;3.53;0.40;;;;;;;9.69;98.57;96683.69;5031187;28;20049;-62
2022/12/22 13:45:30;;;;;;;2.70;0.60;;;;;;;9.69;98.93;96699.91;5044001;28;20052;-58
2022/12/22 13:47:59;;;;;;;2.08;0.75;;;;;;;9.72;98.07;96702.06;5036514;28;20417;-58
2022/12/22 13:50:49;;;;;;;5.72;1.05;;;;;;;9.83;95.80;96705.63;5039685;28;20068;-58
2022/12/22 13:53:24;;;;;;;4.57;0.52;;;;;;;9.80;96.46;96734.03;5036515;28;20056;-60
2022/12/22 13:56:21;;;;;;;2.97;0.80;;;;;;;9.75;98.32;96724.00;5037904;28;20111;-57
2022/12/22 13:58:54;;;;;;;2.95;0.40;;;;;;;9.80;96.15;96725.13;5026404;28;20041;-57
2022/12/22 14:01:21;;;;;;;3.35;0.95;;;;;;;9.71;96.52;96720.19;5032700;28;20049;-58
2022/12/22 14:03:56;;;;;;;3.40;0.90;;;;;;;9.78;95.04;96725.38;5040030;28;20303;-59
2022/12/22 14:06:31;;;;;;;3.58;1.42;;;;;;;9.70;96.16;96721.25;5031224;28;20538;-55
2022/12/22 14:09:10;;;;;;;5.03;1.10;;;;;;;9.74;95.10;96714.25;5039312;28;20087;-59
2022/12/22 14:11:37;;;;;;;3.58;0.98;;;;;;;9.80;95.38;96722.41;5022218;28;20064;-59
2022/12/22 14:14:09;;;;;;;5.15;0.73;;;;;;;9.60;96.50;96719.34;5036997;28;20169;-58
2022/12/22 14:16:45;;;;;;;7.28;1.05;;;;;;;9.63;95.17;96728.81;5039119;28;20067;-59
2022/12/22 14:19:14;;;;;;;5.20;1.10;;;;;;;9.71;94.20;96741.81;5038879;28;20045;-64
2022/12/22 14:21:48;;;;;;;6.82;1.00;;;;;;;9.45;95.88;96732.75;5038764;28;20099;-62
2022/12/22 14:24:23;;;;;;;6.32;1.35;;;;;;;9.53;96.10;96736.84;5044298;28;20045;-61
2022/12/22 14:26:52;;;;;;;6.72;1.38;;;;;;;9.40;96.95;96743.53;5045418;28;20581;-60
2022/12/22 14:29:24;;;;;;;7.00;1.35;;;;;;;9.54;94.78;96733.88;5042919;28;20136;-58
2022/12/22 14:31:58;;;;;;;8.50;1.40;;;;;;;9.50;95.45;96733.59;5039013;28;20584;-58
2022/12/22 14:34:31;;;;;;;8.18;1.55;;;;;;;9.37;95.92;96744.88;5035806;28;20049;-59
2022/12/22 14:36:58;;;;;;;8.65;1.35;;;;;;;9.47;95.42;96736.81;5043041;28;20512;-58
2022/12/22 14:39:30;;;;;;;5.50;0.80;;;;;;;9.55;94.43;96738.19;5044180;28;20045;-57
2022/12/22 14:42:00;;;;;;;8.27;1.40;;;;;;;9.44;95.42;96731.13;5030620;28;20129;-60
2022/12/22 14:44:35;;;;;;;10.30;1.27;;;;;;;9.52;94.85;96743.31;5034225;28;20041;-62
2022/12/22 14:47:10;;;;;;;6.05;1.23;;;;;;;9.37;94.74;96736.75;5045455;28;20056;-62
2022/12/22 14:49:53;;;;;;;7.68;1.10;;;;;;;9.41;94.54;96745.97;5038798;28;20104;-61
2022/12/22 14:52:32;;;;;;;7.57;1.80;;;;;;;9.36;93.91;96752.16;5037923;28;20053;-61
2022/12/22 14:54:59;;;;;;;6.97;1.00;;;;;;;9.31;94.54;96752.09;5035207;28;20076;-62
2022/12/22 14:57:35;;;;;;;12.48;1.60;;;;;;;9.21;95.56;96752.84;5041451;28;20781;-61
2022/12/22 15:00:22;;;;;;;11.20;1.58;;;;;;;9.29;94.34;96756.94;5024955;28;20083;-61
2022/12/22 15:02:54;;;;;;;8.60;1.52;;;;;;;9.33;93.61;96757.25;5044375;28;20037;-57
2022/12/22 15:05:30;;;;;;;4.85;1.67;;;;;;;9.28;93.90;96762.63;5041172;28;20051;-59
2022/12/22 15:07:57;;;;;;;10.77;1.38;;;;;;;9.34;93.01;96767.81;5047041;28;20094;-59
2022/12/22 15:10:40;;;;;;;7.90;1.92;;;;;;;9.30;93.32;96765.88;5039220;28;20129;-57
2022/12/22 15:13:21;;;;;;;12.82;1.80;;;;;;;9.26;93.06;96764.75;5036991;28;20048;-58
2022/12/22 15:15:52;;;;;;;8.10;1.50;;;;;;;9.31;92.70;96767.50;5043155;28;20049;-58
2022/12/22 15:18:26;;;;;;;7.75;1.60;;;;;;;9.23;92.71;96776.91;5041734;28;20049;-59
2022/12/22 15:20:54;;;;;;;8.90;1.63;;;;;;;9.15;93.14;96769.28;5033022;28;20444;-58
2022/12/22 15:23:21;;;;;;;6.95;2.25;;;;;;;9.06;93.19;96764.34;5055910;28;20040;-58
2022/12/22 15:25:47;;;;;;;9.73;1.92;;;;;;;8.90;94.24;96773.38;5033497;28;20136;-59
2022/12/22 15:28:14;;;;;;;9.98;1.88;;;;;;;8.97;93.10;96777.50;5029909;28;20084;-60
2022/12/22 15:30:41;;;;;;;11.23;2.28;;;;;;;9.05;92.48;96775.41;5041488;28;20401;-60
2022/12/22 15:33:13;;;;;;;9.90;2.08;;;;;;;9.02;92.84;96779.44;5047693;28;20131;-58
2022/12/22 15:35:40;;;;;;;7.43;1.55;;;;;;;9.12;92.33;96773.31;5046237;28;20102;-58
2022/12/22 15:38:18;;;;;;;10.20;1.52;;;;;;;9.17;91.74;96777.91;5039519;28;20106;-61
2022/12/22 15:40:45;;;;;;;8.27;1.95;;;;;;;9.10;92.89;96775.44;5037715;28;20106;-58